createdAt,value
2022-10-05T00:00:28.119Z,8.03
2022-10-05T00:01:28.151Z,8.21
2022-10-05T00:02:28.091Z,8.09
2022-10-05T00:03:28.071Z,8.12
2022-10-05T00:04:28.061Z,8.10
2022-10-05T00:05:28.155Z,8.13
2022-10-05T00:06:28.037Z,8.03
2022-10-05T00:07:28.025Z,7.96
2022-10-05T00:08:28.010Z,8.07
2022-10-05T00:09:27.991Z,8.00
2022-10-05T00:10:27.983Z,8.06
2022-10-05T00:11:27.964Z,8.03
2022-10-05T00:12:27.956Z,7.95
2022-10-05T00:13:27.943Z,8.00
2022-10-05T00:14:27.923Z,8.03
2022-10-05T00:15:27.909Z,8.03
2022-10-05T00:16:27.980Z,8.02
2022-10-05T00:17:27.883Z,8.14
2022-10-05T00:18:27.870Z,7.92
2022-10-05T00:19:27.858Z,8.12
2022-10-05T00:20:27.841Z,8.24
2022-10-05T00:21:27.854Z,8.24
2022-10-05T00:22:27.821Z,8.29
2022-10-05T00:23:27.805Z,8.22
2022-10-05T00:24:27.794Z,8.14
2022-10-05T00:25:27.780Z,8.20
2022-10-05T00:26:27.770Z,8.24
2022-10-05T00:27:27.752Z,8.32
2022-10-05T00:28:27.882Z,8.22
2022-10-05T00:29:27.728Z,8.27
2022-10-05T00:30:27.714Z,8.28
2022-10-05T00:31:27.749Z,8.37
2022-10-05T00:32:27.681Z,8.29
2022-10-05T00:33:27.668Z,8.25
2022-10-05T00:34:27.667Z,8.32
2022-10-05T00:35:27.641Z,8.18
2022-10-05T00:36:27.632Z,8.25
2022-10-05T00:37:27.636Z,8.29
2022-10-05T00:38:27.610Z,8.27
2022-10-05T00:39:27.587Z,8.25
2022-10-05T00:40:27.580Z,8.31
2022-10-05T00:41:27.564Z,8.31
2022-10-05T00:42:27.556Z,8.17
2022-10-05T00:43:27.537Z,8.36
2022-10-05T00:44:27.530Z,8.21
2022-10-05T00:45:27.621Z,8.21
2022-10-05T00:46:27.499Z,8.18
2022-10-05T00:47:27.489Z,8.17
2022-10-05T00:48:27.469Z,8.21
2022-10-05T00:49:27.452Z,8.13
2022-10-05T00:50:27.446Z,8.12
2022-10-05T00:51:27.629Z,8.12
2022-10-05T00:52:27.426Z,8.13
2022-10-05T00:53:27.428Z,8.10
2022-10-05T00:54:27.394Z,8.06
2022-10-05T00:55:27.378Z,8.10
2022-10-05T00:56:27.368Z,7.96
2022-10-05T00:57:27.348Z,8.06
2022-10-05T00:58:27.332Z,8.00
2022-10-05T00:59:27.319Z,8.00
2022-10-05T01:00:27.307Z,7.96
2022-10-05T01:01:27.350Z,8.00
2022-10-05T01:02:27.343Z,8.02
2022-10-05T01:03:27.262Z,7.96
2022-10-05T01:04:27.259Z,8.02
2022-10-05T01:05:27.243Z,7.92
2022-10-05T01:06:27.232Z,8.03
2022-10-05T01:07:27.212Z,8.13
2022-10-05T01:08:27.203Z,8.07
2022-10-05T01:09:27.221Z,8.06
2022-10-05T01:10:27.172Z,8.09
2022-10-05T01:11:27.158Z,8.17
2022-10-05T01:12:27.148Z,8.09
2022-10-05T01:13:27.132Z,8.03
2022-10-05T01:14:27.120Z,8.10
2022-10-05T01:15:27.111Z,8.20
2022-10-05T01:16:27.141Z,8.02
2022-10-05T01:17:27.084Z,8.04
2022-10-05T01:18:27.073Z,8.09
2022-10-05T01:19:27.059Z,8.20
2022-10-05T01:20:27.042Z,7.94
2022-10-05T01:21:27.033Z,8.12
2022-10-05T01:22:27.010Z,8.10
2022-10-05T01:23:27.000Z,8.17
2022-10-05T01:24:26.986Z,8.09
2022-10-05T01:25:26.994Z,8.09
2022-10-05T01:26:26.958Z,8.07
2022-10-05T01:27:26.946Z,8.09
2022-10-05T01:28:26.973Z,8.10
2022-10-05T01:29:26.921Z,8.04
2022-10-05T01:30:26.906Z,8.13
2022-10-05T01:31:27.013Z,8.07
2022-10-05T01:32:26.888Z,8.07
2022-10-05T01:33:26.877Z,8.02
2022-10-05T01:34:26.851Z,8.06
2022-10-05T01:35:26.844Z,8.07
2022-10-05T01:36:26.834Z,8.03
2022-10-05T01:37:26.815Z,8.07
2022-10-05T01:38:26.800Z,8.07
2022-10-05T01:39:26.788Z,8.18
2022-10-05T01:40:26.772Z,8.13
2022-10-05T01:41:26.783Z,8.07
2022-10-05T01:42:26.751Z,8.04
2022-10-05T01:43:26.736Z,8.02
2022-10-05T01:44:26.722Z,8.22
2022-10-05T01:45:26.867Z,8.09
2022-10-05T01:46:26.693Z,8.12
2022-10-05T01:47:26.683Z,8.03
2022-10-05T01:48:26.669Z,8.17
2022-10-05T01:49:26.653Z,7.96
2022-10-05T01:50:26.639Z,7.91
2022-10-05T01:51:26.639Z,7.91
2022-10-05T01:52:26.607Z,7.95
2022-10-05T01:53:26.596Z,7.99
2022-10-05T01:54:26.587Z,7.99
2022-10-05T01:55:26.567Z,7.86
2022-10-05T01:56:26.562Z,7.91
2022-10-05T01:57:26.571Z,7.92
2022-10-05T01:58:26.529Z,7.92
2022-10-05T01:59:26.522Z,7.91
2022-10-05T02:00:26.502Z,7.79
2022-10-05T02:01:26.564Z,7.79
2022-10-05T02:02:26.576Z,7.88
2022-10-05T02:03:26.469Z,7.79
2022-10-05T02:04:59.839Z,7.85
2022-10-05T02:05:27.459Z,7.85
2022-10-05T02:06:26.420Z,7.71
2022-10-05T02:07:26.406Z,7.67
2022-10-05T02:08:26.393Z,7.71
2022-10-05T02:09:26.383Z,7.66
2022-10-05T02:10:26.368Z,7.70
2022-10-05T02:11:26.355Z,7.74
2022-10-05T02:12:26.336Z,7.76
2022-10-05T02:13:26.353Z,7.70
2022-10-05T02:14:26.316Z,7.67
2022-10-05T02:15:26.302Z,7.62
2022-10-05T02:16:26.357Z,7.51
2022-10-05T02:17:26.274Z,7.67
2022-10-05T02:18:26.259Z,7.51
2022-10-05T02:19:26.250Z,7.54
2022-10-05T02:20:26.231Z,7.60
2022-10-05T02:21:26.221Z,7.47
2022-10-05T02:22:26.207Z,7.54
2022-10-05T02:23:26.197Z,7.58
2022-10-05T02:24:26.176Z,7.62
2022-10-05T02:25:26.170Z,7.58
2022-10-05T02:26:26.155Z,7.60
2022-10-05T02:27:26.146Z,7.52
2022-10-05T02:28:26.253Z,7.62
2022-10-05T02:29:26.141Z,7.63
2022-10-05T02:30:26.100Z,7.55
2022-10-05T02:31:26.183Z,7.55
2022-10-05T02:32:26.074Z,7.55
2022-10-05T02:33:26.070Z,7.54
2022-10-05T02:34:26.060Z,7.54
2022-10-05T02:35:26.053Z,7.57
2022-10-05T02:36:26.022Z,7.52
2022-10-05T02:37:26.009Z,7.36
2022-10-05T02:38:25.999Z,7.54
2022-10-05T02:39:25.991Z,7.39
2022-10-05T02:40:25.972Z,7.50
2022-10-05T02:41:25.965Z,7.47
2022-10-05T02:42:26.024Z,7.36
2022-10-05T02:43:25.927Z,7.42
2022-10-05T02:44:25.915Z,7.37
2022-10-05T02:45:25.928Z,7.37
2022-10-05T02:46:26.336Z,7.42
2022-10-05T02:47:25.879Z,7.29
2022-10-05T02:48:25.859Z,7.34
2022-10-05T02:49:25.860Z,7.23
2022-10-05T02:50:25.833Z,7.32
2022-10-05T02:51:25.831Z,7.27
2022-10-05T02:52:25.808Z,7.34
2022-10-05T02:53:25.799Z,7.33
2022-10-05T02:54:25.777Z,7.29
2022-10-05T02:55:25.771Z,7.23
2022-10-05T02:56:25.751Z,7.32
2022-10-05T02:57:25.746Z,7.23
2022-10-05T02:58:25.727Z,7.24
2022-10-05T02:59:25.718Z,7.26
2022-10-05T03:00:25.703Z,7.23
2022-10-05T03:01:25.828Z,7.30
2022-10-05T03:02:25.834Z,7.16
2022-10-05T03:03:25.670Z,7.30
2022-10-05T03:04:25.655Z,7.24
2022-10-05T03:05:25.644Z,7.24
2022-10-05T03:06:25.631Z,7.29
2022-10-05T03:07:25.616Z,7.23
2022-10-05T03:08:25.596Z,7.24
2022-10-05T03:09:25.587Z,7.24
2022-10-05T03:10:25.565Z,7.15
2022-10-05T03:11:25.556Z,7.23
2022-10-05T03:12:25.541Z,7.12
2022-10-05T03:13:25.534Z,7.15
2022-10-05T03:14:25.516Z,7.05
2022-10-05T03:15:25.498Z,7.08
2022-10-05T03:16:25.616Z,7.11
2022-10-05T03:17:25.506Z,6.99
2022-10-05T03:18:30.459Z,7.05
2022-10-05T03:19:25.453Z,6.97
2022-10-05T03:20:25.434Z,6.94
2022-10-05T03:21:25.426Z,6.91
2022-10-05T03:22:25.410Z,6.89
2022-10-05T03:23:25.398Z,6.93
2022-10-05T03:24:25.382Z,6.81
2022-10-05T03:25:25.369Z,6.89
2022-10-05T03:26:25.354Z,6.97
2022-10-05T03:27:25.349Z,6.91
2022-10-05T03:28:25.400Z,6.91
2022-10-05T03:29:25.320Z,6.90
2022-10-05T03:30:25.301Z,6.82
2022-10-05T03:31:25.373Z,6.89
2022-10-05T03:32:25.281Z,6.81
2022-10-05T03:33:25.291Z,6.89
2022-10-05T03:34:25.245Z,6.81
2022-10-05T03:35:25.241Z,6.87
2022-10-05T03:36:25.220Z,6.89
2022-10-05T03:37:25.210Z,6.96
2022-10-05T03:38:25.196Z,6.86
2022-10-05T03:39:25.184Z,6.81
2022-10-05T03:40:25.168Z,6.86
2022-10-05T03:41:25.152Z,6.78
2022-10-05T03:42:25.142Z,6.76
2022-10-05T03:43:25.132Z,6.75
2022-10-05T03:44:25.115Z,6.71
2022-10-05T03:45:25.120Z,6.81
2022-10-05T03:46:25.147Z,6.69
2022-10-05T03:47:25.086Z,6.76
2022-10-05T03:48:25.060Z,6.69
2022-10-05T03:49:25.077Z,6.71
2022-10-05T03:50:25.034Z,6.78
2022-10-05T03:51:25.028Z,6.76
2022-10-05T03:52:25.005Z,6.86
2022-10-05T03:53:24.996Z,6.86
2022-10-05T03:54:24.983Z,6.87
2022-10-05T03:55:24.973Z,6.91
2022-10-05T03:56:24.959Z,6.87
2022-10-05T03:57:24.945Z,6.93
2022-10-05T03:58:24.922Z,6.86
2022-10-05T03:59:28.795Z,6.91
2022-10-05T04:00:25.934Z,6.89
2022-10-05T04:01:24.997Z,6.90
2022-10-05T04:02:25.008Z,6.91
2022-10-05T04:03:24.863Z,6.83
2022-10-05T04:04:24.852Z,6.96
2022-10-05T04:05:24.859Z,6.90
2022-10-05T04:06:24.823Z,6.79
2022-10-05T04:07:24.816Z,6.97
2022-10-05T04:08:24.849Z,7.07
2022-10-05T04:09:24.791Z,7.04
2022-10-05T04:10:24.769Z,7.01
2022-10-05T04:11:24.760Z,7.05
2022-10-05T04:12:24.750Z,7.04
2022-10-05T04:13:24.735Z,7.12
2022-10-05T04:14:24.714Z,7.08
2022-10-05T04:15:24.702Z,7.26
2022-10-05T04:16:24.772Z,7.21
2022-10-05T04:17:24.675Z,7.14
2022-10-05T04:18:24.657Z,7.29
2022-10-05T04:19:24.655Z,7.23
2022-10-05T04:20:24.631Z,7.30
2022-10-05T04:21:24.644Z,7.23
2022-10-05T04:22:24.610Z,7.32
2022-10-05T04:23:24.601Z,7.32
2022-10-05T04:24:24.581Z,7.36
2022-10-05T04:25:24.572Z,7.41
2022-10-05T04:26:24.552Z,7.39
2022-10-05T04:27:24.542Z,7.32
2022-10-05T04:28:28.315Z,7.37
2022-10-05T04:29:25.533Z,7.30
2022-10-05T04:30:24.505Z,7.33
2022-10-05T04:31:24.558Z,7.19
2022-10-05T04:32:24.480Z,7.21
2022-10-05T04:33:24.470Z,7.21
2022-10-05T04:34:24.450Z,7.18
2022-10-05T04:35:24.437Z,7.16
2022-10-05T04:36:24.428Z,7.12
2022-10-05T04:37:24.493Z,7.14
2022-10-05T04:38:24.391Z,7.04
2022-10-05T04:39:24.384Z,7.08
2022-10-05T04:40:24.367Z,7.12
2022-10-05T04:41:24.355Z,7.07
2022-10-05T04:42:24.353Z,7.05
2022-10-05T04:43:24.332Z,7.01
2022-10-05T04:44:24.309Z,6.94
2022-10-05T04:45:24.302Z,6.91
2022-10-05T04:46:24.348Z,6.93
2022-10-05T04:47:24.278Z,6.97
2022-10-05T04:48:24.266Z,7.01
2022-10-05T04:49:24.255Z,6.99
2022-10-05T04:50:24.242Z,6.89
2022-10-05T04:51:24.225Z,6.90
2022-10-05T04:52:24.217Z,6.87
2022-10-05T04:53:24.224Z,6.76
2022-10-05T04:54:24.178Z,6.81
2022-10-05T04:55:24.171Z,6.76
2022-10-05T04:56:24.157Z,6.82
2022-10-05T04:57:24.152Z,6.61
2022-10-05T04:58:24.132Z,6.64
2022-10-05T04:59:24.118Z,6.75
2022-10-05T05:00:24.114Z,6.69
2022-10-05T05:01:24.136Z,6.65
2022-10-05T05:02:24.078Z,6.69
2022-10-05T05:03:24.079Z,6.73
2022-10-05T05:04:24.046Z,6.72
2022-10-05T05:05:24.038Z,6.65
2022-10-05T05:06:24.025Z,6.68
2022-10-05T05:07:24.010Z,6.58
2022-10-05T05:08:23.994Z,6.55
2022-10-05T05:09:24.006Z,6.64
2022-10-05T05:10:23.971Z,6.71
2022-10-05T05:11:24.794Z,6.55
2022-10-05T05:12:23.940Z,6.61
2022-10-05T05:13:23.934Z,6.57
2022-10-05T05:14:23.914Z,6.54
2022-10-05T05:15:23.906Z,6.51
2022-10-05T05:16:23.953Z,6.55
2022-10-05T05:17:23.881Z,6.50
2022-10-05T05:18:23.862Z,6.54
2022-10-05T05:19:23.847Z,6.46
2022-10-05T05:20:23.839Z,6.55
2022-10-05T05:21:23.823Z,6.48
2022-10-05T05:22:23.808Z,6.45
2022-10-05T05:23:23.796Z,6.40
2022-10-05T05:24:23.780Z,6.40
2022-10-05T05:25:23.789Z,6.42
2022-10-05T05:26:23.764Z,6.40
2022-10-05T05:27:23.746Z,6.39
2022-10-05T05:28:23.791Z,6.36
2022-10-05T05:29:23.719Z,6.36
2022-10-05T05:30:23.705Z,6.39
2022-10-05T05:31:23.750Z,6.38
2022-10-05T05:32:23.681Z,6.38
2022-10-05T05:33:23.665Z,6.42
2022-10-05T05:34:23.654Z,6.35
2022-10-05T05:35:23.628Z,6.38
2022-10-05T05:36:23.730Z,6.39
2022-10-05T05:37:23.602Z,6.42
2022-10-05T05:38:23.600Z,6.36
2022-10-05T05:39:23.583Z,6.45
2022-10-05T05:40:23.570Z,6.35
2022-10-05T05:41:23.579Z,6.43
2022-10-05T05:42:23.544Z,6.35
2022-10-05T05:43:23.559Z,6.51
2022-10-05T05:44:23.518Z,6.45
2022-10-05T05:45:23.500Z,6.45
2022-10-05T05:46:38.916Z,6.43
2022-10-05T05:47:24.554Z,6.57
2022-10-05T05:48:23.464Z,6.57
2022-10-05T05:49:23.450Z,6.54
2022-10-05T05:50:23.432Z,6.64
2022-10-05T05:51:23.418Z,6.60
2022-10-05T05:52:23.406Z,6.55
2022-10-05T05:53:23.388Z,6.71
2022-10-05T05:54:23.377Z,6.60
2022-10-05T05:55:27.645Z,6.64
2022-10-05T05:56:24.370Z,6.68
2022-10-05T05:57:23.361Z,6.71
2022-10-05T05:58:23.340Z,6.83
2022-10-05T05:59:23.314Z,6.82
2022-10-05T06:00:23.313Z,6.72
2022-10-05T06:01:32.910Z,6.76
2022-10-05T06:02:24.440Z,6.73
2022-10-05T06:03:23.378Z,6.82
2022-10-05T06:04:23.245Z,6.93
2022-10-05T06:05:23.227Z,6.82
2022-10-05T06:06:23.228Z,6.89
2022-10-05T06:07:28.041Z,6.78
2022-10-05T06:08:24.224Z,6.89
2022-10-05T06:09:23.178Z,6.87
2022-10-05T06:10:23.179Z,6.79
2022-10-05T06:11:23.169Z,6.89
2022-10-05T06:12:23.146Z,6.91
2022-10-05T06:13:23.147Z,6.93
2022-10-05T06:14:23.112Z,6.91
2022-10-05T06:15:23.095Z,6.97
2022-10-05T06:16:23.171Z,6.91
2022-10-05T06:17:23.069Z,7.04
2022-10-05T06:18:23.072Z,7.07
2022-10-05T06:19:23.043Z,7.19
2022-10-05T06:20:23.034Z,7.21
2022-10-05T06:21:23.014Z,7.29
2022-10-05T06:22:23.008Z,7.33
2022-10-05T06:23:22.994Z,7.37
2022-10-05T06:24:22.994Z,7.41
2022-10-05T06:25:22.965Z,7.55
2022-10-05T06:26:22.953Z,7.48
2022-10-05T06:27:22.939Z,7.57
2022-10-05T06:28:22.991Z,7.50
2022-10-05T06:29:22.954Z,7.57
2022-10-05T06:30:22.901Z,7.58
2022-10-05T06:31:22.906Z,7.69
2022-10-05T06:32:22.870Z,7.69
2022-10-05T06:33:22.857Z,7.66
2022-10-05T06:34:22.851Z,7.66
2022-10-05T06:35:22.836Z,7.67
2022-10-05T06:36:22.826Z,7.62
2022-10-05T06:37:22.806Z,7.57
2022-10-05T06:38:22.794Z,7.47
2022-10-05T06:39:22.775Z,7.42
2022-10-05T06:40:22.770Z,7.39
2022-10-05T06:41:22.750Z,7.52
2022-10-05T06:42:22.739Z,7.52
2022-10-05T06:43:22.723Z,7.45
2022-10-05T06:44:22.711Z,7.54
2022-10-05T06:45:22.833Z,7.63
2022-10-05T06:46:22.793Z,7.69
2022-10-05T06:47:22.670Z,7.69
2022-10-05T06:48:22.661Z,7.74
2022-10-05T06:49:22.649Z,7.92
2022-10-05T06:50:22.638Z,8.07
2022-10-05T06:51:22.619Z,8.13
2022-10-05T06:52:22.607Z,8.18
2022-10-05T06:53:22.591Z,8.34
2022-10-05T06:54:22.584Z,8.49
2022-10-05T06:55:22.566Z,8.57
2022-10-05T06:56:22.557Z,8.70
2022-10-05T06:57:22.536Z,8.94
2022-10-05T06:58:22.524Z,9.20
2022-10-05T06:59:22.513Z,9.40
2022-10-05T07:00:22.513Z,9.86
2022-10-05T07:01:22.560Z,10.43
2022-10-05T07:02:22.619Z,11.12
2022-10-05T07:03:22.475Z,11.81
2022-10-05T07:04:22.450Z,12.44
2022-10-05T07:05:22.433Z,12.99
2022-10-05T07:06:22.417Z,13.38
2022-10-05T07:07:22.401Z,13.76
2022-10-05T07:08:22.393Z,14.05
2022-10-05T07:09:22.374Z,14.31
2022-10-05T07:10:22.386Z,14.61
2022-10-05T07:11:22.349Z,14.72
2022-10-05T07:12:22.340Z,15.03
2022-10-05T07:13:22.328Z,15.09
2022-10-05T07:14:22.328Z,15.34
2022-10-05T07:15:22.296Z,15.25
2022-10-05T07:16:22.322Z,14.64
2022-10-05T07:17:22.307Z,13.99
2022-10-05T07:18:22.257Z,13.39
2022-10-05T07:19:22.249Z,12.98
2022-10-05T07:20:22.232Z,12.52
2022-10-05T07:21:22.214Z,12.23
2022-10-05T07:22:22.205Z,12.01
2022-10-05T07:23:22.187Z,11.88
2022-10-05T07:24:22.182Z,12.16
2022-10-05T07:25:22.161Z,12.19
2022-10-05T07:26:22.157Z,11.96
2022-10-05T07:27:22.141Z,11.96
2022-10-05T07:28:22.151Z,11.82
2022-10-05T07:29:22.116Z,11.75
2022-10-05T07:30:22.100Z,11.60
2022-10-05T07:31:22.170Z,11.54
2022-10-05T07:32:22.073Z,11.42
2022-10-05T07:33:22.081Z,11.49
2022-10-05T07:34:22.043Z,11.72
2022-10-05T07:35:22.028Z,11.90
2022-10-05T07:36:22.015Z,11.81
2022-10-05T07:37:22.004Z,11.79
2022-10-05T07:38:21.997Z,11.75
2022-10-05T07:39:23.493Z,11.75
2022-10-05T07:40:21.973Z,11.69
2022-10-05T07:41:21.952Z,11.67
2022-10-05T07:42:21.940Z,11.63
2022-10-05T07:43:21.920Z,11.59
2022-10-05T07:44:21.912Z,11.79
2022-10-05T07:45:21.892Z,11.77
2022-10-05T07:46:21.939Z,11.90
2022-10-05T07:47:21.864Z,11.87
2022-10-05T07:48:21.858Z,11.85
2022-10-05T07:49:21.887Z,11.74
2022-10-05T07:50:21.835Z,11.81
2022-10-05T07:51:21.815Z,11.82
2022-10-05T07:52:21.847Z,11.84
2022-10-05T07:53:21.790Z,11.90
2022-10-05T07:54:21.796Z,11.84
2022-10-05T07:55:21.808Z,11.78
2022-10-05T07:56:21.752Z,11.79
2022-10-05T07:57:21.734Z,11.87
2022-10-05T07:58:21.716Z,12.21
2022-10-05T07:59:21.701Z,12.88
2022-10-05T08:00:21.838Z,13.68
2022-10-05T08:01:21.774Z,14.49
2022-10-05T08:02:21.786Z,15.35
2022-10-05T08:03:21.778Z,16.06
2022-10-05T08:04:21.639Z,16.77
2022-10-05T08:05:21.639Z,17.30
2022-10-05T08:06:21.615Z,17.87
2022-10-05T08:07:21.596Z,18.50
2022-10-05T08:08:21.598Z,18.93
2022-10-05T08:09:21.571Z,19.21
2022-10-05T08:10:21.682Z,19.70
2022-10-05T08:11:21.542Z,19.82
2022-10-05T08:12:21.534Z,19.89
2022-10-05T08:13:21.514Z,19.94
2022-10-05T08:14:21.507Z,20.08
2022-10-05T08:15:21.493Z,20.10
2022-10-05T08:16:21.516Z,20.23
2022-10-05T08:17:25.477Z,20.31
2022-10-05T08:18:21.452Z,20.33
2022-10-05T08:19:21.437Z,20.30
2022-10-05T08:20:21.526Z,20.05
2022-10-05T08:21:21.432Z,20.04
2022-10-05T08:22:21.453Z,19.92
2022-10-05T08:23:21.386Z,20.10
2022-10-05T08:24:21.375Z,20.22
2022-10-05T08:25:21.363Z,20.37
2022-10-05T08:26:21.354Z,20.20
2022-10-05T08:27:21.334Z,19.76
2022-10-05T08:28:21.388Z,19.49
2022-10-05T08:29:21.305Z,19.70
2022-10-05T08:30:21.295Z,19.95
2022-10-05T08:31:21.342Z,20.41
2022-10-05T08:32:21.272Z,20.91
2022-10-05T08:33:21.251Z,21.01
2022-10-05T08:34:21.248Z,21.28
2022-10-05T08:35:21.234Z,21.59
2022-10-05T08:36:21.224Z,21.96
2022-10-05T08:37:21.230Z,22.04
2022-10-05T08:38:21.192Z,22.23
2022-10-05T08:39:21.184Z,22.76
2022-10-05T08:40:21.169Z,22.91
2022-10-05T08:41:21.149Z,23.38
2022-10-05T08:42:21.138Z,23.60
2022-10-05T08:43:21.129Z,24.00
2022-10-05T08:44:21.120Z,23.72
2022-10-05T08:45:21.102Z,23.81
2022-10-05T08:46:21.295Z,23.50
2022-10-05T08:47:21.075Z,23.57
2022-10-05T08:48:21.066Z,24.00
2022-10-05T08:49:21.050Z,24.30
2022-10-05T08:50:21.042Z,24.66
2022-10-05T08:51:21.023Z,24.77
2022-10-05T08:52:21.367Z,24.48
2022-10-05T08:53:21.024Z,24.18
2022-10-05T08:54:20.984Z,24.27
2022-10-05T08:55:20.968Z,24.39
2022-10-05T08:56:25.123Z,24.11
2022-10-05T08:57:21.969Z,24.61
2022-10-05T08:58:20.934Z,24.89
2022-10-05T08:59:20.918Z,25.57
2022-10-05T09:00:20.912Z,26.20
2022-10-05T09:01:20.946Z,26.51
2022-10-05T09:02:20.969Z,26.97
2022-10-05T09:03:20.868Z,26.11
2022-10-05T09:04:20.862Z,26.20
2022-10-05T09:05:20.844Z,26.03
2022-10-05T09:06:20.838Z,26.20
2022-10-05T09:07:20.821Z,26.78
2022-10-05T09:08:20.821Z,26.94
2022-10-05T09:09:20.814Z,27.30
2022-10-05T09:10:20.781Z,27.39
2022-10-05T09:11:20.766Z,27.91
2022-10-05T09:12:20.756Z,28.18
2022-10-05T09:13:20.741Z,28.60
2022-10-05T09:14:20.736Z,29.11
2022-10-05T09:15:25.864Z,29.02
2022-10-05T09:16:20.849Z,28.88
2022-10-05T09:17:20.699Z,28.89
2022-10-05T09:18:20.685Z,27.83
2022-10-05T09:19:20.666Z,27.59
2022-10-05T09:20:20.654Z,27.33
2022-10-05T09:21:20.643Z,27.35
2022-10-05T09:22:20.640Z,27.86
2022-10-05T09:23:20.621Z,28.35
2022-10-05T09:24:20.620Z,29.10
2022-10-05T09:25:20.615Z,29.25
2022-10-05T09:26:20.585Z,29.42
2022-10-05T09:27:20.568Z,29.17
2022-10-05T09:28:20.652Z,28.58
2022-10-05T09:29:20.545Z,27.55
2022-10-05T09:30:20.537Z,26.86
2022-10-05T09:31:20.560Z,26.39
2022-10-05T09:32:20.507Z,25.85
2022-10-05T09:33:20.493Z,25.30
2022-10-05T09:34:20.490Z,25.05
2022-10-05T09:35:20.476Z,24.93
2022-10-05T09:36:20.461Z,24.68
2022-10-05T09:37:20.449Z,24.18
2022-10-05T09:38:20.440Z,23.87
2022-10-05T09:39:20.422Z,23.56
2022-10-05T09:40:20.415Z,23.47
2022-10-05T09:41:20.430Z,23.31
2022-10-05T09:42:20.388Z,23.11
2022-10-05T09:43:20.374Z,22.91
2022-10-05T09:44:20.365Z,22.85
2022-10-05T09:45:21.489Z,22.99
2022-10-05T09:46:20.455Z,22.89
2022-10-05T09:47:20.325Z,22.85
2022-10-05T09:48:20.309Z,22.81
2022-10-05T09:49:20.303Z,22.54
2022-10-05T09:50:20.280Z,22.26
2022-10-05T09:51:20.269Z,22.27
2022-10-05T09:52:20.260Z,22.36
2022-10-05T09:53:20.453Z,22.30
2022-10-05T09:54:20.233Z,22.11
2022-10-05T09:55:20.223Z,21.98
2022-10-05T09:56:20.281Z,22.08
2022-10-05T09:57:20.221Z,22.08
2022-10-05T09:58:20.180Z,22.12
2022-10-05T09:59:20.170Z,22.02
2022-10-05T10:00:20.152Z,22.14
2022-10-05T10:01:33.259Z,22.08
2022-10-05T10:02:21.273Z,22.11
2022-10-05T10:03:20.222Z,22.20
2022-10-05T10:04:20.101Z,22.84
2022-10-05T10:05:20.095Z,23.59
2022-10-05T10:06:20.077Z,23.79
2022-10-05T10:07:20.069Z,23.79
2022-10-05T10:08:20.054Z,23.38
2022-10-05T10:09:20.045Z,23.06
2022-10-05T10:10:20.024Z,22.79
2022-10-05T10:11:20.014Z,22.66
2022-10-05T10:12:19.997Z,22.41
2022-10-05T10:13:20.010Z,22.31
2022-10-05T10:14:19.975Z,22.31
2022-10-05T10:15:19.967Z,22.31
2022-10-05T10:16:20.092Z,22.31
2022-10-05T10:17:19.943Z,22.35
2022-10-05T10:18:19.922Z,22.41
2022-10-05T10:19:19.917Z,22.64
2022-10-05T10:20:19.895Z,22.91
2022-10-05T10:21:19.888Z,23.15
2022-10-05T10:22:19.922Z,23.14
2022-10-05T10:23:19.865Z,23.29
2022-10-05T10:24:19.850Z,23.67
2022-10-05T10:25:19.840Z,24.04
2022-10-05T10:26:19.828Z,24.42
2022-10-05T10:27:19.815Z,24.59
2022-10-05T10:28:19.845Z,24.27
2022-10-05T10:29:19.903Z,24.06
2022-10-05T10:30:19.842Z,24.12
2022-10-05T10:31:19.870Z,24.24
2022-10-05T10:32:19.761Z,24.37
2022-10-05T10:33:19.733Z,23.81
2022-10-05T10:34:19.718Z,23.50
2022-10-05T10:35:19.814Z,23.07
2022-10-05T10:36:19.696Z,22.91
2022-10-05T10:37:19.688Z,22.72
2022-10-05T10:38:19.663Z,22.45
2022-10-05T10:39:19.654Z,22.35
2022-10-05T10:40:19.649Z,22.23
2022-10-05T10:41:19.629Z,22.38
2022-10-05T10:42:23.895Z,22.60
2022-10-05T10:43:20.630Z,22.97
2022-10-05T10:44:19.591Z,23.29
2022-10-05T10:45:19.685Z,23.62
2022-10-05T10:46:19.608Z,23.69
2022-10-05T10:47:19.551Z,23.94
2022-10-05T10:48:19.535Z,24.27
2022-10-05T10:49:19.526Z,24.45
2022-10-05T10:50:19.513Z,24.45
2022-10-05T10:51:19.507Z,24.41
2022-10-05T10:52:19.489Z,24.08
2022-10-05T10:53:19.477Z,23.82
2022-10-05T10:54:19.522Z,23.67
2022-10-05T10:55:19.452Z,23.47
2022-10-05T10:56:19.433Z,23.39
2022-10-05T10:57:19.433Z,23.15
2022-10-05T10:58:19.485Z,23.19
2022-10-05T10:59:19.403Z,23.11
2022-10-05T11:00:19.384Z,23.09
2022-10-05T11:01:19.491Z,22.99
2022-10-05T11:02:19.422Z,23.03
2022-10-05T11:03:19.347Z,23.04
2022-10-05T11:04:19.331Z,23.00
2022-10-05T11:05:19.325Z,23.03
2022-10-05T11:06:19.304Z,22.99
2022-10-05T11:07:19.297Z,22.94
2022-10-05T11:08:19.278Z,23.21
2022-10-05T11:09:19.267Z,23.87
2022-10-05T11:10:19.258Z,24.67
2022-10-05T11:11:19.247Z,25.31
2022-10-05T11:12:19.227Z,26.01
2022-10-05T11:13:19.217Z,26.73
2022-10-05T11:14:19.201Z,27.50
2022-10-05T11:15:19.193Z,28.13
2022-10-05T11:16:19.891Z,28.33
2022-10-05T11:17:19.189Z,28.36
2022-10-05T11:18:19.151Z,28.05
2022-10-05T11:19:19.142Z,27.46
2022-10-05T11:20:19.118Z,27.27
2022-10-05T11:21:19.112Z,27.65
2022-10-05T11:22:19.097Z,28.15
2022-10-05T11:23:19.087Z,28.65
2022-10-05T11:24:19.071Z,29.49
2022-10-05T11:25:19.063Z,30.01
2022-10-05T11:26:19.044Z,30.38
2022-10-05T11:27:19.084Z,30.42
2022-10-05T11:28:19.089Z,30.83
2022-10-05T11:29:19.008Z,30.78
2022-10-05T11:30:19.023Z,31.41
2022-10-05T11:31:19.193Z,31.57
2022-10-05T11:32:18.968Z,31.91
2022-10-05T11:33:19.017Z,32.34
2022-10-05T11:34:18.951Z,32.72
2022-10-05T11:35:18.940Z,33.02
2022-10-05T11:36:18.920Z,33.53
2022-10-05T11:37:18.915Z,33.96
2022-10-05T11:38:18.896Z,34.30
2022-10-05T11:39:18.897Z,34.31
2022-10-05T11:40:18.874Z,34.30
2022-10-05T11:41:18.867Z,33.75
2022-10-05T11:42:18.848Z,33.59
2022-10-05T11:43:18.837Z,33.60
2022-10-05T11:44:18.818Z,33.60
2022-10-05T11:45:18.810Z,33.92
2022-10-05T11:46:18.834Z,34.27
2022-10-05T11:47:18.785Z,34.67
2022-10-05T11:48:18.771Z,34.93
2022-10-05T11:49:18.782Z,34.24
2022-10-05T11:50:18.754Z,34.37
2022-10-05T11:51:18.935Z,34.01
2022-10-05T11:52:18.729Z,34.16
2022-10-05T11:53:18.721Z,33.87
2022-10-05T11:54:18.701Z,34.19
2022-10-05T11:55:18.695Z,34.46
2022-10-05T11:56:18.708Z,34.49
2022-10-05T11:57:18.667Z,34.18
2022-10-05T11:58:18.655Z,34.06
2022-10-05T11:59:18.644Z,34.26
2022-10-05T12:00:18.634Z,34.24
2022-10-05T12:01:18.625Z,33.81
2022-10-05T12:02:18.610Z,33.28
2022-10-05T12:03:18.688Z,32.93
2022-10-05T12:04:18.587Z,33.00
2022-10-05T12:05:18.599Z,31.84
2022-10-05T12:06:18.559Z,31.71
2022-10-05T12:07:18.551Z,31.85
2022-10-05T12:08:18.535Z,31.84
2022-10-05T12:09:18.528Z,31.98
2022-10-05T12:10:18.513Z,32.36
2022-10-05T12:11:18.526Z,33.00
2022-10-05T12:12:18.494Z,33.21
2022-10-05T12:13:18.478Z,33.31
2022-10-05T12:14:18.467Z,33.50
2022-10-05T12:15:18.461Z,32.95
2022-10-05T12:16:18.557Z,32.78
2022-10-05T12:17:18.436Z,32.87
2022-10-05T12:18:18.427Z,32.22
2022-10-05T12:19:18.414Z,32.02
2022-10-05T12:20:18.399Z,32.14
2022-10-05T12:21:18.410Z,32.53
2022-10-05T12:22:18.370Z,32.95
2022-10-05T12:23:18.366Z,33.31
2022-10-05T12:24:19.706Z,33.79
2022-10-05T12:25:18.339Z,34.42
2022-10-05T12:26:18.326Z,34.73
2022-10-05T12:27:18.319Z,35.00
2022-10-05T12:28:18.353Z,35.21
2022-10-05T12:29:18.296Z,34.95
2022-10-05T12:30:18.275Z,35.18
2022-10-05T12:31:18.382Z,35.00
2022-10-05T12:32:18.251Z,34.91
2022-10-05T12:33:18.272Z,34.88
2022-10-05T12:34:18.226Z,35.03
2022-10-05T12:35:36.205Z,34.98
2022-10-05T12:36:19.225Z,34.31
2022-10-05T12:37:18.218Z,33.99
2022-10-05T12:38:18.184Z,33.57
2022-10-05T12:39:18.177Z,33.50
2022-10-05T12:40:18.161Z,33.53
2022-10-05T12:41:18.151Z,33.12
2022-10-05T12:42:18.137Z,33.07
2022-10-05T12:43:18.130Z,33.18
2022-10-05T12:44:18.114Z,33.09
2022-10-05T12:45:18.104Z,32.66
2022-10-05T12:46:18.085Z,32.41
2022-10-05T12:47:18.077Z,32.63
2022-10-05T12:48:18.061Z,32.84
2022-10-05T12:49:18.053Z,32.68
2022-10-05T12:50:18.040Z,32.17
2022-10-05T12:51:18.029Z,31.98
2022-10-05T12:52:18.017Z,32.17
2022-10-05T12:53:18.028Z,32.32
2022-10-05T12:54:17.993Z,32.77
2022-10-05T12:55:17.986Z,33.11
2022-10-05T12:56:17.970Z,33.26
2022-10-05T12:57:17.965Z,33.35
2022-10-05T12:58:17.941Z,33.43
2022-10-05T12:59:17.934Z,33.26
2022-10-05T13:00:22.655Z,32.72
2022-10-05T13:01:18.004Z,32.76
2022-10-05T13:02:17.937Z,32.53
2022-10-05T13:03:17.893Z,32.68
2022-10-05T13:04:17.875Z,32.95
2022-10-05T13:05:17.867Z,32.98
2022-10-05T13:06:17.849Z,32.83